sensor_id;sensor_type;location;lat;lon;timestamp;pressure;altitude;pressure_sealevel;temperature
13410;BMP180;6775;49.574;11.170;2023-11-19T00:00:24;97558.75;;;5.76
13410;BMP180;6775;49.574;11.170;2023-11-19T00:02:53;97548.53;;;5.76
13410;BMP180;6775;49.574;11.170;2023-11-19T00:05:22;97551.81;;;5.78
13410;BMP180;6775;49.574;11.170;2023-11-19T00:07:50;97538.16;;;5.79
13410;BMP180;6775;49.574;11.170;2023-11-19T00:10:18;97518.41;;;5.83
13410;BMP180;6775;49.574;11.170;2023-11-19T00:12:48;97524.13;;;5.86
13410;BMP180;6775;49.574;11.170;2023-11-19T00:15:17;97533.84;;;5.94
13410;BMP180;6775;49.574;11.170;2023-11-19T00:17:47;97536.13;;;5.98
13410;BMP180;6775;49.574;11.170;2023-11-19T00:20:19;97522.38;;;6.01
13410;BMP180;6775;49.574;11.170;2023-11-19T00:22:48;97523.28;;;6.00
13410;BMP180;6775;49.574;11.170;2023-11-19T00:25:20;97521.66;;;5.99
13410;BMP180;6775;49.574;11.170;2023-11-19T00:27:49;97508.25;;;5.95
13410;BMP180;6775;49.574;11.170;2023-11-19T00:30:20;97518.66;;;5.92
13410;BMP180;6775;49.574;11.170;2023-11-19T00:32:48;97526.28;;;5.92
13410;BMP180;6775;49.574;11.170;2023-11-19T00:35:18;97519.31;;;5.96
13410;BMP180;6775;49.574;11.170;2023-11-19T00:37:46;97506.44;;;5.97
13410;BMP180;6775;49.574;11.170;2023-11-19T00:40:14;97498.69;;;5.99
13410;BMP180;6775;49.574;11.170;2023-11-19T00:42:45;97493.69;;;5.97
13410;BMP180;6775;49.574;11.170;2023-11-19T00:45:13;97489.50;;;5.96
13410;BMP180;6775;49.574;11.170;2023-11-19T00:47:41;97480.94;;;5.97
13410;BMP180;6775;49.574;11.170;2023-11-19T00:50:10;97484.81;;;6.02
13410;BMP180;6775;49.574;11.170;2023-11-19T00:52:41;97480.56;;;6.03
13410;BMP180;6775;49.574;11.170;2023-11-19T00:55:09;97487.13;;;6.07
13410;BMP180;6775;49.574;11.170;2023-11-19T00:57:38;97487.91;;;6.07
13410;BMP180;6775;49.574;11.170;2023-11-19T01:00:08;97492.03;;;6.10
13410;BMP180;6775;49.574;11.170;2023-11-19T01:02:45;97483.63;;;6.08
13410;BMP180;6775;49.574;11.170;2023-11-19T01:05:13;97479.25;;;6.10
13410;BMP180;6775;49.574;11.170;2023-11-19T01:07:43;97488.53;;;6.11
13410;BMP180;6775;49.574;11.170;2023-11-19T01:10:11;97482.63;;;6.10
13410;BMP180;6775;49.574;11.170;2023-11-19T01:12:39;97486.00;;;6.11
13410;BMP180;6775;49.574;11.170;2023-11-19T01:15:08;97480.78;;;6.12
13410;BMP180;6775;49.574;11.170;2023-11-19T01:17:37;97480.50;;;6.17
13410;BMP180;6775;49.574;11.170;2023-11-19T01:20:06;97478.50;;;6.22
13410;BMP180;6775;49.574;11.170;2023-11-19T01:22:35;97475.94;;;6.22
13410;BMP180;6775;49.574;11.170;2023-11-19T01:25:06;97473.47;;;6.20
13410;BMP180;6775;49.574;11.170;2023-11-19T01:27:34;97466.63;;;6.21
13410;BMP180;6775;49.574;11.170;2023-11-19T01:30:02;97463.09;;;6.23
13410;BMP180;6775;49.574;11.170;2023-11-19T01:32:31;97467.00;;;6.29
13410;BMP180;6775;49.574;11.170;2023-11-19T01:34:59;97462.59;;;6.31
13410;BMP180;6775;49.574;11.170;2023-11-19T01:37:28;97461.69;;;6.32
13410;BMP180;6775;49.574;11.170;2023-11-19T01:39:56;97450.69;;;6.31
13410;BMP180;6775;49.574;11.170;2023-11-19T01:42:26;97448.19;;;6.30
13410;BMP180;6775;49.574;11.170;2023-11-19T01:45:01;97442.91;;;6.33
13410;BMP180;6775;49.574;11.170;2023-11-19T01:47:30;97440.25;;;6.34
13410;BMP180;6775;49.574;11.170;2023-11-19T01:49:59;97440.25;;;6.34
13410;BMP180;6775;49.574;11.170;2023-11-19T01:52:27;97430.88;;;6.35
13410;BMP180;6775;49.574;11.170;2023-11-19T01:54:56;97421.25;;;6.38
13410;BMP180;6775;49.574;11.170;2023-11-19T01:57:26;97410.84;;;6.41
13410;BMP180;6775;49.574;11.170;2023-11-19T01:59:54;97407.41;;;6.42
13410;BMP180;6775;49.574;11.170;2023-11-19T02:02:22;97410.03;;;6.41
13410;BMP180;6775;49.574;11.170;2023-11-19T02:04:52;97402.28;;;6.42
13410;BMP180;6775;49.574;11.170;2023-11-19T02:07:21;97396.56;;;6.39
13410;BMP180;6775;49.574;11.170;2023-11-19T02:09:49;97391.47;;;6.39
13410;BMP180;6775;49.574;11.170;2023-11-19T02:12:17;97390.63;;;6.38
13410;BMP180;6775;49.574;11.170;2023-11-19T02:14:48;97385.44;;;6.40
13410;BMP180;6775;49.574;11.170;2023-11-19T02:17:26;97388.81;;;6.40
13410;BMP180;6775;49.574;11.170;2023-11-19T02:19:55;97389.22;;;6.47
13410;BMP180;6775;49.574;11.170;2023-11-19T02:22:23;97389.22;;;6.47
13410;BMP180;6775;49.574;11.170;2023-11-19T02:24:56;97396.69;;;6.50
13410;BMP180;6775;49.574;11.170;2023-11-19T02:27:39;97399.22;;;6.50
13410;BMP180;6775;49.574;11.170;2023-11-19T02:30:09;97392.31;;;6.52
13410;BMP180;6775;49.574;11.170;2023-11-19T02:32:38;97387.72;;;6.56
13410;BMP180;6775;49.574;11.170;2023-11-19T02:35:08;97402.63;;;6.62
13410;BMP180;6775;49.574;11.170;2023-11-19T02:37:36;97400.59;;;6.67
13410;BMP180;6775;49.574;11.170;2023-11-19T02:40:06;97397.03;;;6.70
13410;BMP180;6775;49.574;11.170;2023-11-19T02:42:36;97403.88;;;6.69
13410;BMP180;6775;49.574;11.170;2023-11-19T02:45:07;97400.50;;;6.69
13410;BMP180;6775;49.574;11.170;2023-11-19T02:47:37;97401.09;;;6.72
13410;BMP180;6775;49.574;11.170;2023-11-19T02:50:06;97391.63;;;6.74
13410;BMP180;6775;49.574;11.170;2023-11-19T02:52:40;97391.53;;;6.76
13410;BMP180;6775;49.574;11.170;2023-11-19T02:55:10;97383.97;;;6.74
13410;BMP180;6775;49.574;11.170;2023-11-19T02:57:39;97377.91;;;6.75
13410;BMP180;6775;49.574;11.170;2023-11-19T03:00:15;97386.41;;;6.76
13410;BMP180;6775;49.574;11.170;2023-11-19T03:02:44;97381.31;;;6.76
13410;BMP180;6775;49.574;11.170;2023-11-19T03:05:13;97370.16;;;6.77
13410;BMP180;6775;49.574;11.170;2023-11-19T03:07:43;97362.69;;;6.74
13410;BMP180;6775;49.574;11.170;2023-11-19T03:10:12;97361.19;;;6.71
13410;BMP180;6775;49.574;11.170;2023-11-19T03:12:43;97367.00;;;6.73
13410;BMP180;6775;49.574;11.170;2023-11-19T03:15:13;97357.59;;;6.74
13410;BMP180;6775;49.574;11.170;2023-11-19T03:17:42;97355.13;;;6.72
13410;BMP180;6775;49.574;11.170;2023-11-19T03:20:11;97347.56;;;6.71
13410;BMP180;6775;49.574;11.170;2023-11-19T03:22:42;97340.03;;;6.69
13410;BMP180;6775;49.574;11.170;2023-11-19T03:25:10;97332.66;;;6.65
13410;BMP180;6775;49.574;11.170;2023-11-19T03:27:39;97337.56;;;6.68
13410;BMP180;6775;49.574;11.170;2023-11-19T03:30:10;97328.91;;;6.70
13410;BMP180;6775;49.574;11.170;2023-11-19T03:32:39;97319.59;;;6.69
13410;BMP180;6775;49.574;11.170;2023-11-19T03:35:08;97319.59;;;6.69
13410;BMP180;6775;49.574;11.170;2023-11-19T03:37:36;97310.31;;;6.68
13410;BMP180;6775;49.574;11.170;2023-11-19T03:40:05;97283.13;;;6.67
13410;BMP180;6775;49.574;11.170;2023-11-19T03:42:34;97237.06;;;6.69
13410;BMP180;6775;49.574;11.170;2023-11-19T03:45:03;97228.66;;;6.67
13410;BMP180;6775;49.574;11.170;2023-11-19T03:47:31;97196.63;;;6.63
13410;BMP180;6775;49.574;11.170;2023-11-19T03:50:01;97204.88;;;6.66
13410;BMP180;6775;49.574;11.170;2023-11-19T03:52:29;97212.22;;;6.71
13410;BMP180;6775;49.574;11.170;2023-11-19T03:55:09;97230.84;;;6.73
13410;BMP180;6775;49.574;11.170;2023-11-19T03:57:39;97236.31;;;6.79
13410;BMP180;6775;49.574;11.170;2023-11-19T04:00:08;97258.88;;;6.85
13410;BMP180;6775;49.574;11.170;2023-11-19T04:02:37;97256.63;;;6.93
13410;BMP180;6775;49.574;11.170;2023-11-19T04:05:07;97251.41;;;6.95
13410;BMP180;6775;49.574;11.170;2023-11-19T04:07:36;97247.22;;;6.94
13410;BMP180;6775;49.574;11.170;2023-11-19T04:10:05;97255.50;;;6.97
13410;BMP180;6775;49.574;11.170;2023-11-19T04:12:35;97258.66;;;7.01
13410;BMP180;6775;49.574;11.170;2023-11-19T04:15:04;97258.53;;;7.02
13410;BMP180;6775;49.574;11.170;2023-11-19T04:17:32;97250.06;;;7.02
13410;BMP180;6775;49.574;11.170;2023-11-19T04:20:00;97271.31;;;7.02
13410;BMP180;6775;49.574;11.170;2023-11-19T04:22:32;97277.13;;;7.04
13410;BMP180;6775;49.574;11.170;2023-11-19T04:25:00;97271.94;;;7.05
13410;BMP180;6775;49.574;11.170;2023-11-19T04:27:28;97266.72;;;7.07
13410;BMP180;6775;49.574;11.170;2023-11-19T04:29:57;97276.22;;;7.05
13410;BMP180;6775;49.574;11.170;2023-11-19T04:32:25;97281.13;;;7.08
13410;BMP180;6775;49.574;11.170;2023-11-19T04:34:53;97287.66;;;7.12
13410;BMP180;6775;49.574;11.170;2023-11-19T04:37:21;97282.34;;;7.15
13410;BMP180;6775;49.574;11.170;2023-11-19T04:39:51;97283.66;;;7.20
13410;BMP180;6775;49.574;11.170;2023-11-19T04:42:19;97289.25;;;7.25
13410;BMP180;6775;49.574;11.170;2023-11-19T04:44:50;97280.56;;;7.28
13410;BMP180;6775;49.574;11.170;2023-11-19T04:47:18;97275.22;;;7.31
13410;BMP180;6775;49.574;11.170;2023-11-19T04:49:46;97269.19;;;7.32
13410;BMP180;6775;49.574;11.170;2023-11-19T04:52:14;97265.63;;;7.34
13410;BMP180;6775;49.574;11.170;2023-11-19T04:54:42;97249.13;;;7.38
13410;BMP180;6775;49.574;11.170;2023-11-19T04:57:12;97271.25;;;7.27
13410;BMP180;6775;49.574;11.170;2023-11-19T04:59:40;97264.53;;;7.26
13410;BMP180;6775;49.574;11.170;2023-11-19T05:02:09;97267.06;;;7.26
13410;BMP180;6775;49.574;11.170;2023-11-19T05:04:37;97268.59;;;7.28
13410;BMP180;6775;49.574;11.170;2023-11-19T05:07:05;97268.19;;;7.34
13410;BMP180;6775;49.574;11.170;2023-11-19T05:09:33;97257.63;;;7.39
13410;BMP180;6775;49.574;11.170;2023-11-19T05:12:02;97249.72;;;7.42
13410;BMP180;6775;49.574;11.170;2023-11-19T05:14:31;97256.28;;;7.46
13410;BMP180;6775;49.574;11.170;2023-11-19T05:16:59;97251.84;;;7.48
13410;BMP180;6775;49.574;11.170;2023-11-19T05:19:27;97247.44;;;7.50
13410;BMP180;6775;49.574;11.170;2023-11-19T05:21:55;97244.47;;;7.55
13410;BMP180;6775;49.574;11.170;2023-11-19T05:24:24;97239.81;;;7.60
13410;BMP180;6775;49.574;11.170;2023-11-19T05:26:52;97227.72;;;7.62
13410;BMP180;6775;49.574;11.170;2023-11-19T05:29:20;97228.47;;;7.64
13410;BMP180;6775;49.574;11.170;2023-11-19T05:31:49;97225.69;;;7.67
13410;BMP180;6775;49.574;11.170;2023-11-19T05:34:17;97215.34;;;7.69
13410;BMP180;6775;49.574;11.170;2023-11-19T05:36:46;97203.97;;;7.73
13410;BMP180;6775;49.574;11.170;2023-11-19T05:39:14;97206.19;;;7.77
13410;BMP180;6775;49.574;11.170;2023-11-19T05:41:42;97210.03;;;7.83
13410;BMP180;6775;49.574;11.170;2023-11-19T05:44:10;97205.50;;;7.86
13410;BMP180;6775;49.574;11.170;2023-11-19T05:46:38;97208.53;;;7.91
13410;BMP180;6775;49.574;11.170;2023-11-19T05:49:11;97207.38;;;7.95
13410;BMP180;6775;49.574;11.170;2023-11-19T05:51:40;97207.25;;;7.97
13410;BMP180;6775;49.574;11.170;2023-11-19T05:54:09;97203.66;;;7.99
13410;BMP180;6775;49.574;11.170;2023-11-19T05:56:37;97207.88;;;8.00
13410;BMP180;6775;49.574;11.170;2023-11-19T05:59:05;97203.44;;;8.02
13410;BMP180;6775;49.574;11.170;2023-11-19T06:01:42;97210.09;;;8.04
13410;BMP180;6775;49.574;11.170;2023-11-19T06:04:11;97206.50;;;8.07
13410;BMP180;6775;49.574;11.170;2023-11-19T06:06:40;97206.25;;;8.10
13410;BMP180;6775;49.574;11.170;2023-11-19T06:09:08;97207.88;;;8.11
13410;BMP180;6775;49.574;11.170;2023-11-19T06:11:40;97196.75;;;8.12
13410;BMP180;6775;49.574;11.170;2023-11-19T06:14:08;97205.84;;;8.16
13410;BMP180;6775;49.574;11.170;2023-11-19T06:16:36;97207.34;;;8.18
13410;BMP180;6775;49.574;11.170;2023-11-19T06:19:07;97208.75;;;8.22
13410;BMP180;6775;49.574;11.170;2023-11-19T06:21:45;97212.03;;;8.24
13410;BMP180;6775;49.574;11.170;2023-11-19T06:24:14;97227.25;;;8.26
13410;BMP180;6775;49.574;11.170;2023-11-19T06:26:42;97222.16;;;8.26
13410;BMP180;6775;49.574;11.170;2023-11-19T06:29:10;97219.34;;;8.29
13410;BMP180;6775;49.574;11.170;2023-11-19T06:31:40;97214.00;;;8.32
13410;BMP180;6775;49.574;11.170;2023-11-19T06:34:10;97218.88;;;8.35
13410;BMP180;6775;49.574;11.170;2023-11-19T06:36:38;97210.28;;;8.36
13410;BMP180;6775;49.574;11.170;2023-11-19T06:39:07;97203.28;;;8.38
13410;BMP180;6775;49.574;11.170;2023-11-19T06:41:36;97201.34;;;8.41
13410;BMP180;6775;49.574;11.170;2023-11-19T06:44:05;97198.41;;;8.46
13410;BMP180;6775;49.574;11.170;2023-11-19T06:46:33;97200.88;;;8.47
13410;BMP180;6775;49.574;11.170;2023-11-19T06:49:01;97204.91;;;8.50
13410;BMP180;6775;49.574;11.170;2023-11-19T06:51:29;97201.91;;;8.55
13410;BMP180;6775;49.574;11.170;2023-11-19T06:53:57;97204.13;;;8.60
13410;BMP180;6775;49.574;11.170;2023-11-19T06:56:27;97201.91;;;8.66
13410;BMP180;6775;49.574;11.170;2023-11-19T06:58:55;97209.09;;;8.72
13410;BMP180;6775;49.574;11.170;2023-11-19T07:01:23;97205.38;;;8.76
13410;BMP180;6775;49.574;11.170;2023-11-19T07:03:51;97210.75;;;8.84
13410;BMP180;6775;49.574;11.170;2023-11-19T07:06:19;97209.56;;;8.88
13410;BMP180;6775;49.574;11.170;2023-11-19T07:09:01;97210.72;;;8.95
13410;BMP180;6775;49.574;11.170;2023-11-19T07:11:38;97212.69;;;9.02
13410;BMP180;6775;49.574;11.170;2023-11-19T07:14:07;97220.03;;;9.07
13410;BMP180;6775;49.574;11.170;2023-11-19T07:16:35;97212.78;;;9.12
13410;BMP180;6775;49.574;11.170;2023-11-19T07:19:05;97203.94;;;9.16
13410;BMP180;6775;49.574;11.170;2023-11-19T07:21:33;97207.91;;;9.20
13410;BMP180;6775;49.574;11.170;2023-11-19T07:24:03;97206.69;;;9.24
13410;BMP180;6775;49.574;11.170;2023-11-19T07:26:31;97202.97;;;9.28
13410;BMP180;6775;49.574;11.170;2023-11-19T07:29:01;97221.38;;;9.33
13410;BMP180;6775;49.574;11.170;2023-11-19T07:31:29;97218.44;;;9.37
13410;BMP180;6775;49.574;11.170;2023-11-19T07:33:57;97225.78;;;9.42
13410;BMP180;6775;49.574;11.170;2023-11-19T07:36:25;97221.22;;;9.45
13410;BMP180;6775;49.574;11.170;2023-11-19T07:38:53;97232.06;;;9.49
13410;BMP180;6775;49.574;11.170;2023-11-19T07:41:24;97231.94;;;9.50
13410;BMP180;6775;49.574;11.170;2023-11-19T07:43:53;97235.31;;;9.51
13410;BMP180;6775;49.574;11.170;2023-11-19T07:46:22;97247.09;;;9.53
13410;BMP180;6775;49.574;11.170;2023-11-19T07:48:52;97234.00;;;9.56
13410;BMP180;6775;49.574;11.170;2023-11-19T07:51:20;97242.38;;;9.58
13410;BMP180;6775;49.574;11.170;2023-11-19T07:53:48;97236.88;;;9.62
13410;BMP180;6775;49.574;11.170;2023-11-19T07:56:16;97235.03;;;9.64
13410;BMP180;6775;49.574;11.170;2023-11-19T07:58:44;97236.56;;;9.67
13410;BMP180;6775;49.574;11.170;2023-11-19T08:01:13;97231.97;;;9.70
13410;BMP180;6775;49.574;11.170;2023-11-19T08:03:42;97231.72;;;9.73
13410;BMP180;6775;49.574;11.170;2023-11-19T08:06:25;97245.22;;;9.75
13410;BMP180;6775;49.574;11.170;2023-11-19T08:08:53;97243.38;;;9.77
13410;BMP180;6775;49.574;11.170;2023-11-19T08:11:21;97242.44;;;9.78
13410;BMP180;6775;49.574;11.170;2023-11-19T08:13:49;97233.34;;;9.74
13410;BMP180;6775;49.574;11.170;2023-11-19T08:16:17;97236.19;;;9.71
13410;BMP180;6775;49.574;11.170;2023-11-19T08:18:46;97245.72;;;9.69
13410;BMP180;6775;49.574;11.170;2023-11-19T08:21:14;97241.09;;;9.63
13410;BMP180;6775;49.574;11.170;2023-11-19T08:23:42;97244.03;;;9.59
13410;BMP180;6775;49.574;11.170;2023-11-19T08:26:11;97243.72;;;9.53
13410;BMP180;6775;49.574;11.170;2023-11-19T08:28:39;97249.19;;;9.48
13410;BMP180;6775;49.574;11.170;2023-11-19T08:31:07;97232.31;;;9.46
13410;BMP180;6775;49.574;11.170;2023-11-19T08:33:35;97226.81;;;9.39
13410;BMP180;6775;49.574;11.170;2023-11-19T08:36:06;97214.38;;;9.35
13410;BMP180;6775;49.574;11.170;2023-11-19T08:38:34;97218.09;;;9.31
13410;BMP180;6775;49.574;11.170;2023-11-19T08:41:03;97214.50;;;9.33
13410;BMP180;6775;49.574;11.170;2023-11-19T08:43:32;97218.34;;;9.39
13410;BMP180;6775;49.574;11.170;2023-11-19T08:46:00;97214.34;;;9.46
13410;BMP180;6775;49.574;11.170;2023-11-19T08:48:28;97209.88;;;9.58
13410;BMP180;6775;49.574;11.170;2023-11-19T08:50:56;97206.06;;;9.73
13410;BMP180;6775;49.574;11.170;2023-11-19T08:53:25;97209.94;;;9.88
13410;BMP180;6775;49.574;11.170;2023-11-19T08:55:53;97195.09;;;10.03
13410;BMP180;6775;49.574;11.170;2023-11-19T08:58:21;97207.72;;;10.15
13410;BMP180;6775;49.574;11.170;2023-11-19T09:00:49;97213.50;;;10.28
13410;BMP180;6775;49.574;11.170;2023-11-19T09:03:17;97211.53;;;10.41
13410;BMP180;6775;49.574;11.170;2023-11-19T09:05:45;97202.81;;;10.53
13410;BMP180;6775;49.574;11.170;2023-11-19T09:08:13;97205.28;;;10.63
13410;BMP180;6775;49.574;11.170;2023-11-19T09:10:43;97204.38;;;10.74
13410;BMP180;6775;49.574;11.170;2023-11-19T09:13:11;97208.75;;;10.83
13410;BMP180;6775;49.574;11.170;2023-11-19T09:15:39;97209.88;;;10.90
13410;BMP180;6775;49.574;11.170;2023-11-19T09:18:08;97212.84;;;10.95
13410;BMP180;6775;49.574;11.170;2023-11-19T09:20:36;97221.09;;;10.98
13410;BMP180;6775;49.574;11.170;2023-11-19T09:23:06;97224.09;;;11.03
13410;BMP180;6775;49.574;11.170;2023-11-19T09:25:35;97237.09;;;11.11
13410;BMP180;6775;49.574;11.170;2023-11-19T09:28:08;97218.47;;;11.18
13410;BMP180;6775;49.574;11.170;2023-11-19T09:30:36;97230.66;;;11.26
13410;BMP180;6775;49.574;11.170;2023-11-19T09:33:04;97236.38;;;11.39
13410;BMP180;6775;49.574;11.170;2023-11-19T09:35:33;97232.63;;;11.71
13410;BMP180;6775;49.574;11.170;2023-11-19T09:38:01;97240.22;;;12.01
13410;BMP180;6775;49.574;11.170;2023-11-19T09:40:31;97245.66;;;12.07
13410;BMP180;6775;49.574;11.170;2023-11-19T09:43:00;97239.03;;;12.05
13410;BMP180;6775;49.574;11.170;2023-11-19T09:45:32;97236.72;;;12.02
13410;BMP180;6775;49.574;11.170;2023-11-19T09:48:06;97241.06;;;12.01
13410;BMP180;6775;49.574;11.170;2023-11-19T09:50:34;97243.78;;;12.00
13410;BMP180;6775;49.574;11.170;2023-11-19T09:53:03;97234.81;;;12.04
13410;BMP180;6775;49.574;11.170;2023-11-19T09:55:31;97237.25;;;12.05
13410;BMP180;6775;49.574;11.170;2023-11-19T09:58:01;97236.16;;;12.17
13410;BMP180;6775;49.574;11.170;2023-11-19T10:00:31;97240.16;;;12.48
13410;BMP180;6775;49.574;11.170;2023-11-19T10:03:00;97230.34;;;12.60
13410;BMP180;6775;49.574;11.170;2023-11-19T10:05:29;97226.66;;;12.72
13410;BMP180;6775;49.574;11.170;2023-11-19T10:07:57;97215.78;;;12.78
13410;BMP180;6775;49.574;11.170;2023-11-19T10:10:25;97216.47;;;12.90
13410;BMP180;6775;49.574;11.170;2023-11-19T10:12:53;97215.34;;;12.92
13410;BMP180;6775;49.574;11.170;2023-11-19T10:15:25;97206.56;;;13.12
13410;BMP180;6775;49.574;11.170;2023-11-19T10:17:57;97210.16;;;13.46
13410;BMP180;6775;49.574;11.170;2023-11-19T10:20:25;97203.75;;;13.67
13410;BMP180;6775;49.574;11.170;2023-11-19T10:22:54;97208.03;;;13.93
13410;BMP180;6775;49.574;11.170;2023-11-19T10:25:24;97208.16;;;13.92
13410;BMP180;6775;49.574;11.170;2023-11-19T10:27:53;97215.94;;;13.74
13410;BMP180;6775;49.574;11.170;2023-11-19T10:30:23;97211.28;;;13.60
13410;BMP180;6775;49.574;11.170;2023-11-19T10:33:13;97210.75;;;13.40
13410;BMP180;6775;49.574;11.170;2023-11-19T10:35:53;97200.63;;;13.29
13410;BMP180;6775;49.574;11.170;2023-11-19T10:38:25;97202.75;;;13.16
13410;BMP180;6775;49.574;11.170;2023-11-19T10:40:54;97199.81;;;13.02
13410;BMP180;6775;49.574;11.170;2023-11-19T10:43:23;97204.72;;;12.95
13410;BMP180;6775;49.574;11.170;2023-11-19T10:45:52;97197.72;;;12.88
13410;BMP180;6775;49.574;11.170;2023-11-19T10:48:21;97194.72;;;12.83
13410;BMP180;6775;49.574;11.170;2023-11-19T10:50:54;97208.47;;;12.83
13410;BMP180;6775;49.574;11.170;2023-11-19T10:53:24;97202.47;;;12.83
13410;BMP180;6775;49.574;11.170;2023-11-19T10:55:57;97194.19;;;12.79
13410;BMP180;6775;49.574;11.170;2023-11-19T10:58:31;97202.22;;;12.76
13410;BMP180;6775;49.574;11.170;2023-11-19T11:01:02;97207.38;;;12.76
13410;BMP180;6775;49.574;11.170;2023-11-19T11:03:39;97204.13;;;12.74
13410;BMP180;6775;49.574;11.170;2023-11-19T11:06:09;97201.16;;;12.69
13410;BMP180;6775;49.574;11.170;2023-11-19T11:08:39;97207.84;;;12.62
13410;BMP180;6775;49.574;11.170;2023-11-19T11:11:08;97204.59;;;12.60
13410;BMP180;6775;49.574;11.170;2023-11-19T11:13:42;97197.47;;;12.72
13410;BMP180;6775;49.574;11.170;2023-11-19T11:16:10;97181.97;;;13.69
13410;BMP180;6775;49.574;11.170;2023-11-19T11:18:40;97175.38;;;15.34
13410;BMP180;6775;49.574;11.170;2023-11-19T11:21:15;97165.13;;;17.14
13410;BMP180;6775;49.574;11.170;2023-11-19T11:24:15;97181.19;;;18.22
13410;BMP180;6775;49.574;11.170;2023-11-19T11:30:09;97170.06;;;17.39
13410;BMP180;6775;49.574;11.170;2023-11-19T11:32:46;97175.53;;;16.75
13410;BMP180;6775;49.574;11.170;2023-11-19T11:35:37;97169.47;;;15.97
13410;BMP180;6775;49.574;11.170;2023-11-19T11:38:09;97165.50;;;15.38
13410;BMP180;6775;49.574;11.170;2023-11-19T11:40:37;97161.03;;;14.99
13410;BMP180;6775;49.574;11.170;2023-11-19T11:43:44;97170.38;;;14.59
13410;BMP180;6775;49.574;11.170;2023-11-19T11:46:54;97171.94;;;14.26
13410;BMP180;6775;49.574;11.170;2023-11-19T11:49:26;97163.88;;;14.04
13410;BMP180;6775;49.574;11.170;2023-11-19T11:52:02;97169.88;;;13.87
13410;BMP180;6775;49.574;11.170;2023-11-19T11:54:31;97153.94;;;13.74
13410;BMP180;6775;49.574;11.170;2023-11-19T11:57:10;97172.78;;;13.67
13410;BMP180;6775;49.574;11.170;2023-11-19T11:59:47;97168.31;;;13.59
13410;BMP180;6775;49.574;11.170;2023-11-19T12:02:17;97166.47;;;13.52
13410;BMP180;6775;49.574;11.170;2023-11-19T12:04:50;97166.44;;;13.44
13410;BMP180;6775;49.574;11.170;2023-11-19T12:07:22;97158.59;;;13.36
13410;BMP180;6775;49.574;11.170;2023-11-19T12:09:53;97160.13;;;13.29
13410;BMP180;6775;49.574;11.170;2023-11-19T12:12:26;97157.63;;;13.20
13410;BMP180;6775;49.574;11.170;2023-11-19T12:15:08;97144.03;;;13.18
13410;BMP180;6775;49.574;11.170;2023-11-19T12:17:56;97147.06;;;13.13
13410;BMP180;6775;49.574;11.170;2023-11-19T12:20:43;97146.56;;;13.10
13410;BMP180;6775;49.574;11.170;2023-11-19T12:23:32;97138.44;;;13.05
13410;BMP180;6775;49.574;11.170;2023-11-19T12:26:35;97146.09;;;12.97
13410;BMP180;6775;49.574;11.170;2023-11-19T12:29:22;97143.13;;;12.92
13410;BMP180;6775;49.574;11.170;2023-11-19T12:32:08;97137.75;;;12.86
13410;BMP180;6775;49.574;11.170;2023-11-19T12:34:59;97130.69;;;12.78
13410;BMP180;6775;49.574;11.170;2023-11-19T12:37:47;97123.41;;;12.74
13410;BMP180;6775;49.574;11.170;2023-11-19T12:40:36;97131.25;;;12.72
13410;BMP180;6775;49.574;11.170;2023-11-19T12:43:23;97130.22;;;12.65
13410;BMP180;6775;49.574;11.170;2023-11-19T12:46:16;97140.28;;;12.59
13410;BMP180;6775;49.574;11.170;2023-11-19T12:49:03;97140.06;;;12.53
13410;BMP180;6775;49.574;11.170;2023-11-19T12:51:51;97148.06;;;12.50
13410;BMP180;6775;49.574;11.170;2023-11-19T12:54:38;97150.66;;;12.50
13410;BMP180;6775;49.574;11.170;2023-11-19T12:57:38;97151.72;;;12.47
13410;BMP180;6775;49.574;11.170;2023-11-19T13:00:19;97146.28;;;12.50
13410;BMP180;6775;49.574;11.170;2023-11-19T13:02:52;97146.28;;;12.50
13410;BMP180;6775;49.574;11.170;2023-11-19T13:05:24;97154.53;;;12.54
13410;BMP180;6775;49.574;11.170;2023-11-19T13:07:59;97156.03;;;12.56
13410;BMP180;6775;49.574;11.170;2023-11-19T13:10:27;97149.50;;;12.61
13410;BMP180;6775;49.574;11.170;2023-11-19T13:13:05;97140.25;;;12.68
13410;BMP180;6775;49.574;11.170;2023-11-19T13:15:34;97149.88;;;13.03
13410;BMP180;6775;49.574;11.170;2023-11-19T13:18:03;97134.91;;;13.41
13410;BMP180;6775;49.574;11.170;2023-11-19T13:20:31;97143.75;;;13.73
13410;BMP180;6775;49.574;11.170;2023-11-19T13:23:02;97142.38;;;13.78
13410;BMP180;6775;49.574;11.170;2023-11-19T13:25:31;97136.47;;;13.68
13410;BMP180;6775;49.574;11.170;2023-11-19T13:27:59;97128.28;;;13.56
13410;BMP180;6775;49.574;11.170;2023-11-19T13:30:29;97130.88;;;13.38
13410;BMP180;6775;49.574;11.170;2023-11-19T13:32:57;97130.66;;;13.32
13410;BMP180;6775;49.574;11.170;2023-11-19T13:35:25;97126.06;;;13.26
13410;BMP180;6775;49.574;11.170;2023-11-19T13:37:54;97112.44;;;13.16
13410;BMP180;6775;49.574;11.170;2023-11-19T13:40:22;97109.59;;;13.09
13410;BMP180;6775;49.574;11.170;2023-11-19T13:42:52;97105.03;;;13.04
13410;BMP180;6775;49.574;11.170;2023-11-19T13:45:20;97096.41;;;12.95
13410;BMP180;6775;49.574;11.170;2023-11-19T13:47:49;97097.28;;;12.86
13410;BMP180;6775;49.574;11.170;2023-11-19T13:50:17;97085.88;;;12.79
13410;BMP180;6775;49.574;11.170;2023-11-19T13:52:46;97091.91;;;12.70
13410;BMP180;6775;49.574;11.170;2023-11-19T13:55:14;97091.69;;;12.64
13410;BMP180;6775;49.574;11.170;2023-11-19T13:57:43;97098.22;;;12.58
13410;BMP180;6775;49.574;11.170;2023-11-19T14:00:12;97095.41;;;12.52
13410;BMP180;6775;49.574;11.170;2023-11-19T14:02:43;97097.47;;;12.49
13410;BMP180;6775;49.574;11.170;2023-11-19T14:05:14;97099.63;;;12.44
13410;BMP180;6775;49.574;11.170;2023-11-19T14:07:44;97089.91;;;12.38
13410;BMP180;6775;49.574;11.170;2023-11-19T14:10:15;97090.19;;;12.35
13410;BMP180;6775;49.574;11.170;2023-11-19T14:12:43;97095.63;;;12.32
13410;BMP180;6775;49.574;11.170;2023-11-19T14:15:11;97108.94;;;12.27
13410;BMP180;6775;49.574;11.170;2023-11-19T14:17:40;97110.03;;;12.25
13410;BMP180;6775;49.574;11.170;2023-11-19T14:20:09;97112.47;;;12.26
13410;BMP180;6775;49.574;11.170;2023-11-19T14:22:42;97116.38;;;12.30
13410;BMP180;6775;49.574;11.170;2023-11-19T14:25:11;97117.59;;;12.36
13410;BMP180;6775;49.574;11.170;2023-11-19T14:27:41;97101.84;;;12.39
13410;BMP180;6775;49.574;11.170;2023-11-19T14:30:12;97125.69;;;12.41
13410;BMP180;6775;49.574;11.170;2023-11-19T14:32:42;97119.16;;;12.46
13410;BMP180;6775;49.574;11.170;2023-11-19T14:35:12;97129.63;;;12.45
13410;BMP180;6775;49.574;11.170;2023-11-19T14:37:42;97117.81;;;12.42
13410;BMP180;6775;49.574;11.170;2023-11-19T14:40:11;97102.13;;;12.36